Time;durP1;ratioP1;P1;durP2;ratioP2;P2;SDS_P1;SDS_P2;PMS_P1;PMS_P2;Temp;Humidity;BMP_temperature;BMP_pressure;BME280_temperature;BME280_humidity;BME280_pressure;Samples;Min_cycle;Max_cycle;Signal;HPM_P1;HPM_P2
2022/07/01 00:00:48;;;;;;;3.87;2.27;;;;;;;22.85;58.58;98646.72;5117307;27;40063;-75
2022/07/01 00:03:16;;;;;;;3.90;2.67;;;;;;;22.75;58.59;98656.06;5135673;27;41709;-75
2022/07/01 00:05:45;;;;;;;2.50;2.13;;;;;;;22.64;58.85;98649.16;5135243;27;43713;-75
2022/07/01 00:08:13;;;;;;;4.77;2.67;;;;;;;22.52;59.44;98646.03;5100091;27;41121;-75
2022/07/01 00:10:41;;;;;;;4.33;2.70;;;;;;;22.42;59.65;98648.09;5117102;27;39919;-75
2022/07/01 00:13:09;;;;;;;2.67;2.03;;;;;;;22.29;60.13;98639.75;5116926;27;40746;-75
2022/07/01 00:15:36;;;;;;;2.60;2.40;;;;;;;22.16;60.99;98659.19;5135399;27;42793;-75
2022/07/01 00:18:04;;;;;;;2.47;2.30;;;;;;;21.93;61.68;98643.88;5099781;27;43050;-75
2022/07/01 00:20:32;;;;;;;2.90;2.30;;;;;;;21.74;62.57;98637.03;5116756;27;38784;-75
2022/07/01 00:23:01;;;;;;;3.63;2.10;;;;;;;21.56;63.59;98642.63;5117064;27;41807;-75
2022/07/01 00:25:28;;;;;;;3.00;2.00;;;;;;;21.36;64.83;98644.00;5116662;27;42954;-76
2022/07/01 00:27:56;;;;;;;4.03;2.07;;;;;;;21.15;65.43;98647.13;5116626;27;42200;-75
2022/07/01 00:30:24;;;;;;;3.77;2.30;;;;;;;21.00;66.01;98649.69;5116653;27;39904;-74
2022/07/01 00:32:52;;;;;;;3.67;2.23;;;;;;;20.86;66.04;98653.03;5116752;27;41788;-75
2022/07/01 00:35:20;;;;;;;3.30;2.40;;;;;;;20.81;66.34;98644.59;5134627;27;42805;-75
2022/07/01 00:37:48;;;;;;;2.20;2.00;;;;;;;20.74;66.83;98654.34;5116236;27;41214;-75
2022/07/01 00:40:17;;;;;;;4.73;2.23;;;;;;;20.68;67.10;98646.91;5134742;27;41902;-74
2022/07/01 00:42:44;;;;;;;2.10;2.00;;;;;;;20.63;67.14;98649.28;5134911;27;42809;-74
2022/07/01 00:45:14;;;;;;;3.10;2.37;;;;;;;20.57;67.30;98658.84;5116295;27;42744;-74
2022/07/01 00:47:43;;;;;;;2.20;2.00;;;;;;;20.50;67.31;98665.03;5099306;27;41754;-74
2022/07/01 00:50:12;;;;;;;3.03;1.93;;;;;;;20.42;67.38;98664.00;5116269;27;39917;-74
2022/07/01 00:52:41;;;;;;;3.00;2.10;;;;;;;20.41;67.78;98667.69;5099202;27;40667;-75
2022/07/01 00:55:11;;;;;;;3.30;2.40;;;;;;;20.39;67.26;98667.03;5134585;27;43032;-75
2022/07/01 00:57:42;;;;;;;2.37;2.17;;;;;;;20.41;66.98;98681.13;5099372;27;41451;-74
2022/07/01 01:00:13;;;;;;;2.20;2.00;;;;;;;20.37;67.33;98671.72;5099091;27;39809;-74
2022/07/01 01:02:41;;;;;;;2.20;1.90;;;;;;;20.32;66.93;98682.09;5116087;27;42089;-74
2022/07/01 01:05:10;;;;;;;2.10;1.90;;;;;;;20.20;67.34;98686.06;5115810;27;41480;-75
2022/07/01 01:07:37;;;;;;;2.60;1.73;;;;;;;20.08;67.63;98703.47;5134532;27;42385;-74
2022/07/01 01:10:06;;;;;;;2.27;1.40;;;;;;;19.97;67.48;98712.66;5134281;27;40033;-73
2022/07/01 01:12:34;;;;;;;1.50;1.40;;;;;;;19.93;67.03;98718.50;5098829;27;40722;-74
2022/07/01 01:15:04;;;;;;;1.50;1.40;;;;;;;19.86;67.48;98728.22;5115875;27;43513;-74
2022/07/01 01:17:32;;;;;;;2.73;1.30;;;;;;;19.76;68.02;98731.00;5098683;27;42217;-74
2022/07/01 01:20:00;;;;;;;1.47;1.27;;;;;;;19.57;68.16;98718.59;5134205;27;39747;-75
2022/07/01 01:22:29;;;;;;;1.50;1.10;;;;;;;19.50;68.30;98730.97;5115795;27;41695;-74
2022/07/01 01:24:58;;;;;;;1.53;1.30;;;;;;;19.46;68.68;98759.09;5134028;27;42674;-75
2022/07/01 01:27:26;;;;;;;1.50;1.40;;;;;;;19.37;68.63;98754.66;5098262;27;41181;-74
2022/07/01 01:29:53;;;;;;;2.07;1.20;;;;;;;19.28;68.48;98755.59;5115649;27;40890;-74
2022/07/01 01:32:21;;;;;;;1.00;1.00;;;;;;;19.24;68.54;98762.25;5134212;27;41503;-74
2022/07/01 01:34:49;;;;;;;1.27;1.23;;;;;;;19.21;68.36;98768.75;5133915;27;42794;-74
2022/07/01 01:37:17;;;;;;;1.57;1.13;;;;;;;19.21;68.54;98773.28;5115655;27;43162;-74
2022/07/01 01:39:46;;;;;;;1.17;1.17;;;;;;;19.19;68.51;98769.91;5133863;27;40647;-75
2022/07/01 01:42:13;;;;;;;1.07;1.07;;;;;;;19.22;67.96;98772.28;5115060;27;40877;-74
2022/07/01 01:44:41;;;;;;;1.03;0.90;;;;;;;19.25;68.19;98769.31;5115291;27;41674;-74
2022/07/01 01:47:09;;;;;;;1.17;1.10;;;;;;;19.26;67.77;98773.69;5115306;27;40893;-74
2022/07/01 01:49:36;;;;;;;1.30;1.07;;;;;;;19.28;68.32;98763.63;5115627;27;40126;-74
2022/07/01 01:52:06;;;;;;;1.10;0.73;;;;;;;19.14;67.03;98753.41;5097062;27;43480;-74
2022/07/01 01:54:36;;;;;;;1.20;1.10;;;;;;;19.20;67.71;98767.06;5098146;27;43328;-74
2022/07/01 01:57:05;;;;;;;1.70;0.93;;;;;;;19.17;67.05;98763.84;5133823;27;44121;-75
2022/07/01 01:59:33;;;;;;;1.10;1.10;;;;;;;19.15;66.84;98755.13;5133517;27;41439;-74
2022/07/01 02:02:01;;;;;;;0.80;0.80;;;;;;;19.13;66.66;98751.72;5115478;27;41729;-74
2022/07/01 02:04:29;;;;;;;0.93;0.90;;;;;;;19.09;66.83;98748.50;5133870;27;42450;-74
2022/07/01 02:06:57;;;;;;;0.50;0.50;;;;;;;19.05;66.32;98743.56;5133473;27;42460;-74
2022/07/01 02:09:25;;;;;;;0.73;0.43;;;;;;;19.01;66.19;98737.69;5115072;27;40747;-74
2022/07/01 02:11:53;;;;;;;1.33;0.60;;;;;;;18.94;66.28;98707.91;5115125;27;40699;-73
2022/07/01 02:14:22;;;;;;;0.63;0.63;;;;;;;18.97;65.97;98704.94;5115033;27;43986;-73
2022/07/01 02:16:50;;;;;;;0.60;0.60;;;;;;;18.96;66.35;98705.94;5133285;27;43182;-74
2022/07/01 02:19:18;;;;;;;0.57;0.57;;;;;;;18.89;66.87;98694.13;5114825;27;40842;-74
2022/07/01 02:21:46;;;;;;;0.60;0.60;;;;;;;18.90;66.62;98693.13;5133544;27;42709;-74
2022/07/01 02:24:13;;;;;;;0.57;0.57;;;;;;;18.86;66.70;98675.63;5097575;27;44152;-74
2022/07/01 02:26:42;;;;;;;0.83;0.50;;;;;;;18.75;68.05;98662.44;5133212;27;42958;-75
2022/07/01 02:29:10;;;;;;;1.60;0.80;;;;;;;18.52;68.92;98677.25;5114607;27;40013;-75
2022/07/01 02:31:39;;;;;;;1.27;0.80;;;;;;;18.38;69.93;98685.78;5114850;27;41822;-75
2022/07/01 02:34:07;;;;;;;0.83;0.50;;;;;;;18.24;71.14;98684.44;5132861;27;42940;-75
2022/07/01 02:36:35;;;;;;;0.70;0.70;;;;;;;18.13;71.95;98688.16;5114915;27;43279;-75
2022/07/01 02:39:03;;;;;;;0.70;0.70;;;;;;;18.03;72.24;98670.44;5114559;27;40263;-75
2022/07/01 02:41:31;;;;;;;2.00;0.83;;;;;;;17.95;73.08;98684.56;5114110;27;41016;-75
2022/07/01 02:43:58;;;;;;;0.50;0.50;;;;;;;17.87;73.43;98703.22;5097339;27;43231;-75
2022/07/01 02:46:26;;;;;;;1.27;0.80;;;;;;;17.80;73.35;98704.78;5097642;27;41264;-74
2022/07/01 02:48:55;;;;;;;0.70;0.70;;;;;;;17.70;74.25;98701.28;5114591;27;40756;-74
2022/07/01 02:51:23;;;;;;;1.60;0.77;;;;;;;17.62;74.35;98709.16;5114489;27;41783;-75
2022/07/01 02:53:51;;;;;;;0.80;0.67;;;;;;;17.58;75.30;98725.50;5114463;27;42777;-75
2022/07/01 02:56:18;;;;;;;0.50;0.50;;;;;;;17.48;75.75;98748.78;5114537;27;42260;-74
2022/07/01 02:58:46;;;;;;;0.83;0.83;;;;;;;17.44;74.95;98755.38;5114395;27;40065;-75
2022/07/01 03:01:13;;;;;;;0.73;0.60;;;;;;;17.43;75.32;98753.69;5097223;27;43130;-74
2022/07/01 03:03:41;;;;;;;0.97;0.93;;;;;;;17.40;76.25;98767.38;5114096;27;41765;-75
2022/07/01 03:06:10;;;;;;;1.37;0.73;;;;;;;17.39;77.08;98783.59;5114109;27;43029;-75
2022/07/01 03:08:38;;;;;;;0.60;0.60;;;;;;;17.39;77.09;98787.13;5132622;27;40858;-75
2022/07/01 03:11:05;;;;;;;0.90;0.80;;;;;;;17.37;76.82;98781.03;5097139;27;42915;-75
2022/07/01 03:13:33;;;;;;;1.37;0.80;;;;;;;17.37;76.36;98781.03;5097150;27;41586;-75
2022/07/01 03:16:01;;;;;;;0.50;0.50;;;;;;;17.38;76.00;98777.38;5096939;27;42298;-75
2022/07/01 03:18:28;;;;;;;1.07;0.73;;;;;;;17.41;76.01;98768.22;5114068;27;40058;-75
2022/07/01 03:20:56;;;;;;;0.60;0.60;;;;;;;17.40;75.49;98764.72;5097066;27;42306;-75
2022/07/01 03:23:25;;;;;;;0.63;0.60;;;;;;;17.24;75.75;98733.16;5132664;27;42558;-75
2022/07/01 03:25:53;;;;;;;2.03;0.70;;;;;;;17.36;76.36;98757.94;5114062;27;43161;-75
2022/07/01 03:28:21;;;;;;;0.50;0.50;;;;;;;17.37;75.82;98770.34;5114014;27;41566;-75
2022/07/01 03:30:48;;;;;;;0.90;0.70;;;;;;;17.37;75.77;98767.66;5131993;27;41805;-75
2022/07/01 03:33:16;;;;;;;1.40;0.70;;;;;;;17.34;76.06;98754.56;5113997;27;43752;-75
2022/07/01 03:35:45;;;;;;;0.60;0.60;;;;;;;17.38;76.24;98750.63;5113696;27;41235;-75
2022/07/01 03:38:13;;;;;;;0.43;0.43;;;;;;;17.35;77.18;98747.38;5132517;27;40931;-75
2022/07/01 03:40:42;;;;;;;1.23;0.70;;;;;;;17.38;76.64;98749.78;5113574;27;41677;-75
2022/07/01 03:43:10;;;;;;;1.30;0.67;;;;;;;17.40;77.01;98772.75;5096965;27;42124;-75
2022/07/01 03:45:39;;;;;;;0.60;0.60;;;;;;;17.39;77.06;98791.63;5113523;27;42250;-75
2022/07/01 03:48:07;;;;;;;0.80;0.70;;;;;;;17.34;76.61;98786.66;5113715;27;40891;-75
2022/07/01 03:50:35;;;;;;;0.53;0.40;;;;;;;17.44;76.60;98802.72;5131909;27;41766;-75
2022/07/01 03:55:49;;;;;;;1.03;0.70;;;;;;;17.39;76.85;98811.19;5110992;27;42230;-75
2022/07/01 03:58:17;;;;;;;1.33;0.70;;;;;;;17.38;77.62;98800.63;5113702;27;41484;-75
2022/07/01 04:00:45;;;;;;;0.70;0.70;;;;;;;17.28;77.25;98779.22;5096546;27;40799;-74
2022/07/01 04:03:13;;;;;;;0.60;0.60;;;;;;;17.41;77.36;98803.03;5113486;27;44534;-75
2022/07/01 04:05:41;;;;;;;0.67;0.60;;;;;;;17.38;76.83;98804.16;5096408;27;41472;-74
2022/07/01 04:08:10;;;;;;;1.27;0.70;;;;;;;17.26;77.47;98789.22;5096538;27;39887;-74
2022/07/01 04:10:39;;;;;;;0.70;0.70;;;;;;;17.34;77.41;98794.69;5113264;27;41696;-74
2022/07/01 04:13:08;;;;;;;0.67;0.67;;;;;;;17.35;77.57;98791.03;5113428;27;43128;-74
2022/07/01 04:15:36;;;;;;;1.23;0.67;;;;;;;17.37;78.28;98797.09;5133474;27;43195;-74
2022/07/01 04:18:04;;;;;;;0.50;0.50;;;;;;;17.36;78.42;98795.41;5117287;27;39936;-74
2022/07/01 04:20:32;;;;;;;1.90;0.60;;;;;;;17.36;78.11;98798.09;5116678;27;41624;-74
2022/07/01 04:22:58;;;;;;;0.60;0.60;;;;;;;17.36;78.62;98789.22;5135342;27;43912;-74
2022/07/01 04:25:29;;;;;;;1.73;0.70;;;;;;;17.35;78.91;98804.44;5116519;27;41176;-74
2022/07/01 04:27:57;;;;;;;0.73;0.60;;;;;;;17.27;78.25;98801.63;5132029;27;40906;-74
2022/07/01 04:30:26;;;;;;;0.90;0.60;;;;;;;17.36;78.68;98821.34;5135314;27;42676;-74
2022/07/01 04:32:54;;;;;;;0.60;0.60;;;;;;;17.35;78.59;98836.56;5116531;27;42705;-74
2022/07/01 04:35:22;;;;;;;0.60;0.60;;;;;;;17.36;78.57;98837.41;5116438;27;42242;-75
2022/07/01 04:37:49;;;;;;;1.47;0.60;;;;;;;17.36;79.75;98843.59;5099652;27;38934;-75
2022/07/01 04:40:17;;;;;;;0.50;0.50;;;;;;;17.34;79.29;98856.28;5135061;27;41633;-74
2022/07/01 04:42:43;;;;;;;1.40;0.60;;;;;;;17.32;79.39;98854.72;5115788;27;43087;-74
2022/07/01 04:45:11;;;;;;;0.80;0.50;;;;;;;17.28;79.51;98862.19;5099398;27;42468;-74
2022/07/01 04:47:41;;;;;;;0.60;0.40;;;;;;;17.28;79.10;98869.38;5115976;27;40169;-74
2022/07/01 04:50:09;;;;;;;1.17;0.57;;;;;;;17.28;79.44;98872.91;5116488;27;40825;-74
2022/07/01 04:52:37;;;;;;;1.93;0.80;;;;;;;17.29;79.81;98879.94;5099120;27;41597;-74
2022/07/01 04:55:06;;;;;;;0.83;0.80;;;;;;;17.30;79.82;98889.69;5116292;27;42855;-75
2022/07/01 04:57:34;;;;;;;0.50;0.50;;;;;;;17.32;79.97;98894.88;5134542;27;40972;-75
2022/07/01 05:00:03;;;;;;;0.77;0.77;;;;;;;17.27;79.44;98887.25;5116704;27;41787;-74
2022/07/01 05:02:30;;;;;;;0.70;0.70;;;;;;;17.32;79.25;98901.06;5115967;27;43309;-75
2022/07/01 05:05:00;;;;;;;0.83;0.83;;;;;;;17.35;79.32;98905.31;5116003;27;42654;-75
2022/07/01 05:07:37;;;;;;;1.90;1.03;;;;;;;17.36;79.51;98913.19;5116090;27;40110;-75
2022/07/01 05:10:06;;;;;;;0.90;0.90;;;;;;;17.39;79.31;98915.63;5112892;27;42665;-76
2022/07/01 05:12:33;;;;;;;1.17;1.07;;;;;;;17.41;79.45;98913.66;5134248;27;42691;-75
2022/07/01 05:15:01;;;;;;;1.20;1.20;;;;;;;17.35;78.52;98911.50;5134619;27;42251;-75
2022/07/01 05:22:58;;;;;;;1.57;1.47;;;;;;;17.35;79.19;98938.28;5112874;27;43775;-75
2022/07/01 05:25:25;;;;;;;2.43;1.53;;;;;;;17.29;79.72;98951.38;5098780;27;40998;-76
2022/07/01 05:27:54;;;;;;;2.47;1.70;;;;;;;17.25;79.61;98958.81;5133137;27;40944;-75
2022/07/01 05:30:22;;;;;;;1.30;1.20;;;;;;;17.26;79.38;98960.50;5116143;27;41789;-75
2022/07/01 05:32:50;;;;;;;2.13;1.73;;;;;;;17.28;78.98;98969.25;5115547;27;42507;-75
2022/07/01 05:35:19;;;;;;;2.43;1.80;;;;;;;17.31;79.45;98968.97;5098653;27;41236;-75
2022/07/01 05:37:47;;;;;;;1.60;1.50;;;;;;;17.33;79.46;98972.38;5134285;27;40851;-75
2022/07/01 05:40:14;;;;;;;2.63;1.40;;;;;;;17.36;78.84;98972.09;5134091;27;43044;-75
2022/07/01 05:42:42;;;;;;;1.43;1.33;;;;;;;17.36;78.68;98966.75;5098103;27;43199;-75
2022/07/01 05:45:11;;;;;;;1.10;1.00;;;;;;;17.42;78.36;98971.56;5115311;27;43632;-75
2022/07/01 05:47:39;;;;;;;2.90;1.07;;;;;;;17.28;77.96;98953.19;5133684;27;40002;-75
2022/07/01 05:50:07;;;;;;;1.27;1.07;;;;;;;17.44;78.00;98982.97;5133969;27;41609;-75
2022/07/01 05:52:37;;;;;;;0.97;0.90;;;;;;;17.44;77.63;98982.13;5133511;27;42533;-75
2022/07/01 05:55:05;;;;;;;1.00;1.00;;;;;;;17.44;77.71;98980.28;5115495;27;41027;-75
2022/07/01 05:57:33;;;;;;;0.87;0.87;;;;;;;17.41;77.71;98971.69;5098263;27;40033;-75
2022/07/01 06:00:00;;;;;;;0.80;0.80;;;;;;;17.39;77.34;98984.38;5098031;27;41495;-75
2022/07/01 06:02:28;;;;;;;1.20;1.10;;;;;;;17.03;78.37;98934.94;5097870;27;44135;-75
2022/07/01 06:04:55;;;;;;;0.80;0.80;;;;;;;17.28;78.01;98979.97;5115461;27;42404;-75
2022/07/01 06:07:23;;;;;;;1.20;1.03;;;;;;;17.26;78.49;98981.94;5097918;27;40673;-74
2022/07/01 06:09:52;;;;;;;0.97;0.83;;;;;;;17.23;78.87;98990.22;5115324;27;41558;-75
2022/07/01 06:12:19;;;;;;;1.77;1.60;;;;;;;17.20;79.28;98979.78;5133209;27;42937;-75
2022/07/01 06:14:47;;;;;;;1.20;1.07;;;;;;;17.16;79.14;98981.91;5115110;27;43990;-75
2022/07/01 06:17:15;;;;;;;1.23;1.20;;;;;;;17.13;79.44;98982.16;5115135;27;40882;-77
2022/07/01 06:19:43;;;;;;;2.67;0.80;;;;;;;17.10;78.96;98992.28;5097341;27;42234;-77
2022/07/01 06:22:16;;;;;;;1.40;0.97;;;;;;;17.09;78.95;98990.56;5112544;27;43804;-76
2022/07/01 06:24:44;;;;;;;1.07;0.90;;;;;;;17.03;79.06;98983.09;5091023;27;42494;-76
2022/07/01 06:27:14;;;;;;;2.80;1.20;;;;;;;17.03;79.36;98991.13;5103192;27;40787;-75
2022/07/01 06:29:42;;;;;;;1.67;1.07;;;;;;;17.03;79.41;98988.44;5091449;28;41057;-80
2022/07/01 06:32:09;;;;;;;0.80;0.80;;;;;;;17.07;78.79;98988.03;5111175;28;42885;-76
2022/07/01 06:34:38;;;;;;;2.07;1.10;;;;;;;17.09;79.50;98986.06;5094515;28;42761;-77
2022/07/01 06:37:05;;;;;;;0.80;0.80;;;;;;;17.11;79.07;98993.97;5110758;28;39774;-75
2022/07/01 06:39:33;;;;;;;0.90;0.90;;;;;;;17.08;79.24;98994.22;5093901;28;41701;-77
2022/07/01 06:42:01;;;;;;;0.97;0.93;;;;;;;17.02;79.13;98992.09;5110432;28;43646;-77
2022/07/01 06:44:30;;;;;;;1.10;1.00;;;;;;;17.03;79.38;99012.53;5111154;28;42521;-77
2022/07/01 06:46:58;;;;;;;0.97;0.97;;;;;;;17.00;79.08;99015.47;5110837;28;40956;-75
2022/07/01 06:49:26;;;;;;;1.20;1.10;;;;;;;16.97;79.47;99010.38;5111140;28;41382;-79
2022/07/01 06:51:54;;;;;;;1.00;0.87;;;;;;;16.95;79.51;99009.66;5111202;28;42803;-78
2022/07/01 06:54:21;;;;;;;1.00;0.73;;;;;;;16.91;79.76;98994.84;5111340;28;42642;-78
2022/07/01 06:56:49;;;;;;;0.90;0.90;;;;;;;16.86;80.10;98985.41;5110950;28;39955;-78
2022/07/01 06:59:17;;;;;;;0.60;0.60;;;;;;;16.82;80.30;98989.31;5111588;28;42915;-78
2022/07/01 07:01:46;;;;;;;0.50;0.50;;;;;;;16.78;79.94;98998.59;5126796;27;43821;-76
2022/07/01 07:04:14;;;;;;;0.73;0.73;;;;;;;16.76;79.65;99005.91;5114365;27;43019;-77
2022/07/01 07:06:41;;;;;;;0.60;0.60;;;;;;;16.76;80.01;98995.19;5096724;27;38910;-76
2022/07/01 07:09:09;;;;;;;0.77;0.60;;;;;;;16.74;80.14;98990.94;5114505;27;42690;-78
2022/07/01 07:11:37;;;;;;;1.07;0.70;;;;;;;16.68;80.49;98989.66;5114184;27;42887;-78
2022/07/01 07:14:05;;;;;;;0.70;0.70;;;;;;;16.65;80.63;98992.59;5132322;27;42366;-76
2022/07/01 07:16:32;;;;;;;1.77;0.60;;;;;;;16.66;80.25;98996.97;5132676;27;41819;-79
2022/07/01 07:19:02;;;;;;;0.90;0.70;;;;;;;16.67;80.49;99001.34;5097315;27;41879;-79
2022/07/01 07:21:29;;;;;;;1.37;0.80;;;;;;;16.68;80.57;99004.88;5131965;27;42746;-77
2022/07/01 07:23:57;;;;;;;2.00;0.63;;;;;;;16.68;80.21;99007.53;5097249;27;42972;-78
2022/07/01 07:26:25;;;;;;;1.03;0.73;;;;;;;16.68;80.41;99018.22;5096941;27;39053;-79
2022/07/01 07:28:53;;;;;;;0.67;0.67;;;;;;;16.68;80.34;99021.75;5114611;27;41807;-78
2022/07/01 07:31:20;;;;;;;0.60;0.60;;;;;;;16.72;79.81;99038.38;5113958;27;43411;-79
2022/07/01 07:33:48;;;;;;;0.80;0.80;;;;;;;16.74;80.23;99047.97;5097547;27;42240;-79
2022/07/01 07:36:17;;;;;;;0.83;0.77;;;;;;;16.74;79.81;99050.63;5096896;27;40298;-79
2022/07/01 07:38:45;;;;;;;1.10;1.00;;;;;;;16.75;79.89;99048.81;5132207;27;42635;-75
2022/07/01 07:41:12;;;;;;;0.73;0.70;;;;;;;16.69;79.88;99050.16;5131409;27;43753;-78
2022/07/01 07:43:40;;;;;;;2.33;0.60;;;;;;;16.78;80.11;99068.13;5114256;27;42167;-78
2022/07/01 07:46:08;;;;;;;1.03;0.60;;;;;;;16.77;79.23;99068.25;5113386;27;38814;-75
2022/07/01 07:48:35;;;;;;;0.53;0.47;;;;;;;16.74;79.65;99065.84;5096464;27;42065;-75
2022/07/01 07:51:03;;;;;;;0.50;0.50;;;;;;;16.75;79.80;99060.34;5115825;27;42656;-74
2022/07/01 07:53:32;;;;;;;0.53;0.50;;;;;;;16.76;79.72;99054.03;5100418;27;41289;-76
2022/07/01 07:56:00;;;;;;;0.80;0.80;;;;;;;16.76;79.75;99048.69;5099623;27;38871;-77
2022/07/01 07:58:28;;;;;;;1.13;0.70;;;;;;;16.78;79.82;99045.88;5100302;27;40731;-74
2022/07/01 08:00:56;;;;;;;0.53;0.53;;;;;;;16.78;79.59;99044.06;5099593;27;41730;-77
2022/07/01 08:03:23;;;;;;;1.17;0.80;;;;;;;16.82;79.91;99032.09;5117080;27;41198;-78
2022/07/01 08:05:52;;;;;;;0.70;0.70;;;;;;;16.84;79.81;99035.50;5116365;27;40846;-73
2022/07/01 08:08:20;;;;;;;0.60;0.60;;;;;;;16.90;80.03;99044.84;5135321;27;42343;-74
2022/07/01 08:10:49;;;;;;;1.63;1.07;;;;;;;16.91;79.98;99051.88;5099436;27;42826;-76
2022/07/01 08:13:17;;;;;;;0.70;0.70;;;;;;;16.93;79.88;99060.63;5100179;27;40883;-76
2022/07/01 08:15:44;;;;;;;1.13;1.03;;;;;;;16.94;80.11;99069.50;5099297;27;38627;-74
2022/07/01 08:18:12;;;;;;;0.90;0.90;;;;;;;16.89;79.78;99053.84;5135077;27;42491;-76
2022/07/01 08:20:40;;;;;;;1.27;1.10;;;;;;;17.01;79.45;99076.03;5116597;27;43505;-75
2022/07/01 08:23:07;;;;;;;1.40;0.90;;;;;;;17.05;79.39;99089.03;5099601;27;41192;-74
2022/07/01 08:25:35;;;;;;;1.33;0.70;;;;;;;17.00;79.02;99087.69;5098560;27;39235;-80
2022/07/01 08:28:05;;;;;;;1.33;1.23;;;;;;;17.03;79.16;99098.16;5116768;27;41692;-76
2022/07/01 08:30:33;;;;;;;0.87;0.87;;;;;;;17.05;79.42;99098.88;5098739;27;45211;-80
2022/07/01 08:33:01;;;;;;;0.73;0.73;;;;;;;17.08;79.17;99109.28;5117124;27;42768;-81
2022/07/01 08:35:30;;;;;;;1.60;0.80;;;;;;;17.11;78.72;99111.72;5134146;27;40998;-76
2022/07/01 08:37:59;;;;;;;1.13;0.90;;;;;;;17.14;78.67;99114.13;5099638;27;40883;-77
2022/07/01 08:40:27;;;;;;;1.30;1.20;;;;;;;17.17;78.44;99114.72;5116504;27;42810;-77
2022/07/01 08:42:59;;;;;;;0.80;0.80;;;;;;;17.32;78.09;99104.50;5116415;27;42931;-75
2022/07/01 08:45:30;;;;;;;1.10;1.00;;;;;;;17.51;78.09;99110.00;5098922;27;40129;-76
2022/07/01 08:48:00;;;;;;;0.87;0.87;;;;;;;17.74;77.81;99125.91;5131952;27;42484;-81
2022/07/01 08:50:29;;;;;;;0.87;0.87;;;;;;;17.93;77.33;99123.28;5134429;27;42764;-74
2022/07/01 08:52:57;;;;;;;1.70;0.90;;;;;;;18.06;77.34;99131.94;5099431;27;41370;-78
2022/07/01 08:55:26;;;;;;;0.93;0.90;;;;;;;18.20;76.88;99139.59;5098708;27;40575;-75
2022/07/01 08:57:53;;;;;;;1.30;0.80;;;;;;;18.29;76.44;99127.22;5116227;27;42201;-76
2022/07/01 09:00:21;;;;;;;1.70;1.00;;;;;;;18.36;75.79;99132.88;5098597;27;42052;-77
2022/07/01 09:02:59;;;;;;;2.13;0.90;;;;;;;18.50;75.62;99127.13;5115909;27;41086;-73
2022/07/01 09:05:29;;;;;;;1.10;1.10;;;;;;;18.67;75.52;99126.44;5131207;27;39858;-81
2022/07/01 09:07:59;;;;;;;1.00;1.00;;;;;;;18.82;75.13;99122.34;5099368;27;41621;-75
2022/07/01 09:10:30;;;;;;;0.90;0.83;;;;;;;18.96;74.18;99126.44;5115145;27;42192;-75
2022/07/01 09:12:58;;;;;;;1.03;0.87;;;;;;;19.05;73.77;99124.75;5115574;27;40896;-73
2022/07/01 09:15:28;;;;;;;1.00;1.00;;;;;;;19.14;73.52;99140.00;5115485;27;40914;-77
2022/07/01 09:18:03;;;;;;;1.13;0.90;;;;;;;19.19;72.57;99156.53;5098682;27;42103;-75
2022/07/01 09:20:33;;;;;;;0.90;0.90;;;;;;;19.16;72.83;99172.94;5108705;28;43693;-73
2022/07/01 09:23:03;;;;;;;0.90;0.90;;;;;;;19.11;72.51;99180.56;5112017;28;41184;-76
2022/07/01 09:25:32;;;;;;;0.80;0.80;;;;;;;19.08;72.99;99170.94;5114919;27;39876;-73
2022/07/01 09:28:12;;;;;;;1.27;0.83;;;;;;;18.99;72.78;99182.53;5133955;27;41729;-78
2022/07/01 09:30:41;;;;;;;0.70;0.70;;;;;;;18.91;72.92;99177.91;5115408;27;42157;-79
2022/07/01 09:33:13;;;;;;;0.80;0.80;;;;;;;18.86;73.43;99173.91;5134508;27;42262;-78
2022/07/01 09:35:41;;;;;;;1.73;0.90;;;;;;;18.86;73.09;99169.41;5133847;27;39089;-82
2022/07/01 09:38:12;;;;;;;0.80;0.80;;;;;;;18.85;73.03;99156.97;5116095;27;43269;-78
2022/07/01 09:40:47;;;;;;;0.80;0.80;;;;;;;18.81;73.49;99158.22;5130230;27;43592;-77
2022/07/01 09:43:17;;;;;;;0.80;0.80;;;;;;;18.75;73.36;99150.75;5115871;27;42298;-79
2022/07/01 09:45:57;;;;;;;0.93;0.93;;;;;;;18.72;73.80;99159.06;5133515;27;41853;-78
2022/07/01 09:48:28;;;;;;;0.60;0.60;;;;;;;18.73;73.51;99163.47;5098712;27;40875;-77
2022/07/01 09:50:56;;;;;;;1.20;1.10;;;;;;;18.66;73.38;99135.50;5115163;27;44225;-80
2022/07/01 09:53:24;;;;;;;1.30;0.80;;;;;;;18.85;73.19;99140.88;5098816;27;42365;-78
2022/07/01 09:55:52;;;;;;;0.97;0.80;;;;;;;18.89;73.23;99139.59;5115057;27;39113;-80
2022/07/01 09:58:20;;;;;;;0.67;0.67;;;;;;;18.96;73.32;99138.03;5115851;27;40631;-80
2022/07/01 10:00:50;;;;;;;1.57;0.87;;;;;;;19.06;73.69;99153.28;5115013;27;42840;-82
2022/07/01 10:03:19;;;;;;;0.90;0.80;;;;;;;19.15;73.54;99163.19;5098538;27;40981;-80
2022/07/01 10:05:55;;;;;;;2.17;1.10;;;;;;;19.19;72.79;99153.84;5098310;27;38619;-79
2022/07/01 10:08:44;;;;;;;1.00;1.00;;;;;;;19.28;72.98;99158.38;5112203;27;41805;-82
2022/07/01 10:11:40;;;;;;;0.80;0.80;;;;;;;19.30;72.77;99159.06;5114361;27;41809;-77
2022/07/01 10:14:10;;;;;;;1.60;0.93;;;;;;;19.32;72.60;99170.50;5132784;27;42363;-78
2022/07/01 10:16:39;;;;;;;0.77;0.70;;;;;;;19.22;72.36;99169.66;5115315;27;38881;-81
2022/07/01 10:19:25;;;;;;;0.93;0.90;;;;;;;19.28;71.94;99185.22;5133671;27;42464;-75
2022/07/01 10:21:58;;;;;;;0.80;0.80;;;;;;;19.25;72.17;99182.81;5114226;27;41667;-80
2022/07/01 10:24:27;;;;;;;1.33;1.20;;;;;;;19.06;72.04;99175.59;5131144;27;42571;-80
2022/07/01 10:27:01;;;;;;;1.10;1.00;;;;;;;18.85;72.19;99181.13;5132955;27;41143;-81
2022/07/01 10:29:30;;;;;;;1.07;1.00;;;;;;;18.89;72.47;99190.59;5112117;27;41697;-79
2022/07/01 10:32:03;;;;;;;1.43;1.13;;;;;;;18.54;72.58;99171.47;5114886;27;44091;-78
2022/07/01 10:34:42;;;;;;;0.77;0.77;;;;;;;18.73;72.97;99209.06;5098058;27;42244;-79
2022/07/01 10:37:13;;;;;;;1.23;1.13;;;;;;;18.58;72.74;99202.41;5132417;27;40855;-79
2022/07/01 10:39:58;;;;;;;1.73;1.00;;;;;;;18.54;72.90;99206.34;5114838;27;40666;-79
2022/07/01 10:42:31;;;;;;;0.80;0.80;;;;;;;18.51;73.24;99207.44;5097887;27;42062;-82
2022/07/01 10:45:05;;;;;;;1.53;1.43;;;;;;;18.44;72.82;99186.66;5098447;27;41352;-81
2022/07/01 10:47:33;;;;;;;2.00;0.80;;;;;;;18.53;72.35;99185.84;5115187;27;41450;-80
2022/07/01 10:50:12;;;;;;;1.17;0.93;;;;;;;18.65;72.95;99192.84;5114974;27;40684;-81
2022/07/01 10:52:59;;;;;;;1.43;0.83;;;;;;;18.69;72.93;99194.22;5097528;27;43357;-78
2022/07/01 10:55:37;;;;;;;1.30;0.90;;;;;;;18.65;72.77;99209.78;5111202;27;42151;-81
2022/07/01 10:58:05;;;;;;;1.17;1.07;;;;;;;18.61;72.72;99212.88;5130310;27;40893;-78
2022/07/01 11:00:35;;;;;;;1.77;1.10;;;;;;;18.62;72.69;99215.41;5096619;27;41665;-79
2022/07/01 11:03:22;;;;;;;2.60;0.97;;;;;;;18.67;72.64;99232.94;5097575;27;43236;-77
2022/07/01 11:05:53;;;;;;;1.50;1.00;;;;;;;18.65;72.96;99225.03;5114160;27;41260;-77
2022/07/01 11:08:23;;;;;;;1.67;0.70;;;;;;;18.55;72.48;99224.94;5115293;27;40932;-82
2022/07/01 11:10:53;;;;;;;1.03;0.90;;;;;;;18.48;72.63;99239.06;5113938;27;41006;-78
2022/07/01 11:13:21;;;;;;;1.20;1.10;;;;;;;18.46;73.01;99230.28;5114885;27;42721;-80
2022/07/01 11:15:49;;;;;;;1.17;0.80;;;;;;;18.55;73.10;99226.78;5114235;27;42410;-78
2022/07/01 11:18:17;;;;;;;2.00;1.00;;;;;;;18.57;72.98;99224.81;5114872;27;38865;-80
2022/07/01 11:20:45;;;;;;;1.37;0.87;;;;;;;18.59;72.49;99220.19;5113839;27;40870;-79
2022/07/01 11:23:13;;;;;;;2.23;1.03;;;;;;;18.58;72.27;99224.72;5097696;27;42849;-80
2022/07/01 11:25:43;;;;;;;1.00;0.93;;;;;;;18.55;72.34;99226.78;5133910;27;43191;-78
2022/07/01 11:28:12;;;;;;;1.13;1.03;;;;;;;18.48;72.08;99231.00;5117708;27;39880;-75
2022/07/01 11:30:39;;;;;;;1.33;0.90;;;;;;;18.28;72.14;99206.81;5135242;27;41728;-78
2022/07/01 11:33:09;;;;;;;1.40;1.10;;;;;;;18.22;72.44;99215.38;5117864;27;42713;-79
2022/07/01 11:41:19;;;;;;;1.13;1.10;;;;;;;17.91;73.07;99176.19;5134248;27;41651;-84
2022/07/01 11:43:48;;;;;;;1.13;0.87;;;;;;;17.98;73.16;99193.44;5118730;27;41749;-79
2022/07/01 11:46:16;;;;;;;0.97;0.83;;;;;;;18.15;72.98;99211.56;5117825;27;42586;-80
2022/07/01 11:48:47;;;;;;;0.87;0.83;;;;;;;18.38;73.04;99243.53;5101476;27;40030;-78
2022/07/01 11:51:17;;;;;;;1.10;1.00;;;;;;;18.49;72.83;99254.16;5116779;27;40554;-78
2022/07/01 11:53:48;;;;;;;0.73;0.73;;;;;;;18.52;72.54;99229.75;5117350;27;42591;-75
2022/07/01 11:56:19;;;;;;;1.77;1.30;;;;;;;18.53;72.49;99248.41;5118859;27;42228;-78